Time,TemperatureF,DewpointF,PressureIn,WindDirection,WindDirectionDegrees,WindSpeedMPH,WindSpeedGustMPH,Humidity,HourlyPrecipIn,Conditions,Clouds,dailyrainin,SoftwareType,DateUTC
2013-12-20 00:12:00,-4.0,-6.0,-100.00,SSW,210,4.0,6.0,92,-99.99,,,-99.99,,2013-12-20 06:12:00,
2013-12-20 00:22:00,-4.0,-6.0,-100.00,SSW,210,4.0,6.0,92,-99.99,,,-99.99,,2013-12-20 06:22:00,
2013-12-20 00:32:00,-4.0,-6.0,-100.00,SSW,210,4.0,6.0,92,-99.99,,,-99.99,,2013-12-20 06:32:00,
2013-12-20 01:12:00,-4.0,-6.0,-100.00,South,190,4.0,7.0,92,-99.99,,,-99.99,,2013-12-20 07:12:00,
2013-12-20 01:22:00,-4.0,-6.0,-100.00,South,190,4.0,7.0,92,-99.99,,,-99.99,,2013-12-20 07:22:00,
2013-12-20 01:43:00,-4.0,-5.0,-100.00,South,185,8.0,10.0,92,-99.99,,,-99.99,,2013-12-20 07:43:00,
2013-12-20 02:42:00,-5.0,-6.0,-100.00,South,185,7.0,11.0,92,-99.99,,,-99.99,,2013-12-20 08:42:00,
2013-12-20 03:11:00,-7.0,-9.0,-100.00,SSW,200,6.0,7.0,92,-99.99,,,-99.99,,2013-12-20 09:11:00,
2013-12-20 03:22:00,-7.0,-9.0,-100.00,SSW,200,6.0,7.0,92,-99.99,,,-99.99,,2013-12-20 09:22:00,
2013-12-20 03:43:00,-6.0,-7.0,-100.00,SSW,200,7.0,9.0,92,-99.99,,,-99.99,,2013-12-20 09:43:00,
2013-12-20 03:53:00,-6.0,-7.0,-100.00,SSW,200,7.0,9.0,92,-99.99,,,-99.99,,2013-12-20 09:53:00,
2013-12-20 04:12:00,-5.0,-7.0,-100.00,SSW,200,7.0,11.0,92,-99.99,,,-99.99,,2013-12-20 10:12:00,
2013-12-20 04:23:00,-5.0,-7.0,-100.00,SSW,200,7.0,11.0,92,-99.99,,,-99.99,,2013-12-20 10:23:00,
2013-12-20 04:33:00,-5.0,-7.0,-100.00,SSW,200,7.0,11.0,92,-99.99,,,-99.99,,2013-12-20 10:33:00,
2013-12-20 05:12:00,-7.0,-9.0,-100.00,SSW,200,7.0,10.0,92,-99.99,,,-99.99,,2013-12-20 11:12:00,
2013-12-20 05:22:00,-7.0,-9.0,-100.00,SSW,200,7.0,10.0,92,-99.99,,,-99.99,,2013-12-20 11:22:00,
2013-12-20 05:42:00,-7.0,-9.0,-100.00,SSW,200,7.0,11.0,92,-99.99,,,-99.99,,2013-12-20 11:42:00,
2013-12-20 05:53:00,-7.0,-9.0,-100.00,SSW,200,7.0,11.0,92,-99.99,,,-99.99,,2013-12-20 11:53:00,
2013-12-20 06:12:00,-6.0,-7.0,-100.00,South,185,9.0,11.0,92,-99.99,,,-99.99,,2013-12-20 12:12:00,
2013-12-20 06:23:00,-6.0,-7.0,-100.00,South,185,9.0,11.0,92,-99.99,,,-99.99,,2013-12-20 12:23:00,
2013-12-20 06:43:00,-7.0,-9.0,-100.00,South,185,8.0,12.0,92,-99.99,,,-99.99,,2013-12-20 12:43:00,
2013-12-20 06:52:00,-7.0,-9.0,-100.00,South,185,8.0,12.0,92,-99.99,,,-99.99,,2013-12-20 12:52:00,
2013-12-20 07:11:00,-7.0,-9.0,-100.00,SSW,200,8.0,11.0,92,-99.99,,,-99.99,,2013-12-20 13:11:00,
2013-12-20 07:22:00,-7.0,-9.0,-100.00,SSW,200,8.0,11.0,92,-99.99,,,-99.99,,2013-12-20 13:22:00,
2013-12-20 07:42:00,-7.0,-9.0,-100.00,South,190,7.0,12.0,92,-99.99,,,-99.99,,2013-12-20 13:42:00,
2013-12-20 07:53:00,-7.0,-9.0,-100.00,South,190,7.0,12.0,92,-99.99,,,-99.99,,2013-12-20 13:53:00,
2013-12-20 08:11:00,-7.0,-9.0,-100.00,South,190,10.0,13.0,92,-99.99,,,-99.99,,2013-12-20 14:11:00,
2013-12-20 08:22:00,-7.0,-9.0,-100.00,South,190,10.0,13.0,92,-99.99,,,-99.99,,2013-12-20 14:22:00,
2013-12-20 08:42:00,-7.0,-8.0,-100.00,SSW,200,7.0,13.0,92,-99.99,,,-99.99,,2013-12-20 14:42:00,
2013-12-20 08:52:00,-7.0,-8.0,-100.00,SSW,200,7.0,13.0,92,-99.99,,,-99.99,,2013-12-20 14:52:00,
2013-12-20 09:11:00,-7.0,-9.0,-100.00,SSW,200,7.0,11.0,92,-99.99,,,-99.99,,2013-12-20 15:11:00,
2013-12-20 09:22:00,-7.0,-9.0,-100.00,SSW,200,7.0,11.0,92,-99.99,,,-99.99,,2013-12-20 15:22:00,
2013-12-20 09:33:00,-7.0,-9.0,-100.00,SSW,200,7.0,11.0,92,-99.99,,,-99.99,,2013-12-20 15:33:00,
2013-12-20 10:13:00,-5.0,-7.0,-100.00,South,185,9.0,14.0,92,-99.99,,,-99.99,,2013-12-20 16:13:00,
2013-12-20 10:23:00,-5.0,-7.0,-100.00,South,185,9.0,14.0,92,-99.99,,,-99.99,,2013-12-20 16:23:00,
2013-12-20 10:43:00,-3.0,-5.0,-100.00,South,180,7.0,13.0,92,-99.99,,,-99.99,,2013-12-20 16:43:00,
2013-12-20 10:53:00,-3.0,-5.0,-100.00,South,180,7.0,13.0,92,-99.99,,,-99.99,,2013-12-20 16:53:00,
2013-12-20 11:12:00,-3.0,-4.0,-100.00,South,190,8.0,13.0,92,-99.99,,,-99.99,,2013-12-20 17:12:00,
2013-12-20 11:22:00,-3.0,-4.0,-100.00,South,190,8.0,13.0,92,-99.99,,,-99.99,,2013-12-20 17:22:00,
2013-12-20 11:42:00,-1.0,-3.0,-100.00,South,180,11.0,14.0,92,-99.99,,,-99.99,,2013-12-20 17:42:00,
2013-12-20 11:52:00,-1.0,-3.0,-100.00,South,180,11.0,14.0,92,-99.99,,,-99.99,,2013-12-20 17:52:00,
2013-12-20 12:12:00,1.0,-1.0,-100.00,South,185,9.0,14.0,92,-99.99,,,-99.99,,2013-12-20 18:12:00,
2013-12-20 12:22:00,1.0,-1.0,-100.00,South,185,9.0,14.0,92,-99.99,,,-99.99,,2013-12-20 18:22:00,
2013-12-20 12:42:00,3.0,0.0,-100.00,South,180,7.0,14.0,87,-99.99,,,-99.99,,2013-12-20 18:42:00,
2013-12-20 12:52:00,3.0,0.0,-100.00,South,180,7.0,14.0,87,-99.99,,,-99.99,,2013-12-20 18:52:00,
2013-12-20 13:12:00,2.0,-1.0,-100.00,South,185,11.0,16.0,85,-99.99,,,-99.99,,2013-12-20 19:12:00,
2013-12-20 13:22:00,2.0,-1.0,-100.00,South,185,11.0,16.0,85,-99.99,,,-99.99,,2013-12-20 19:22:00,
2013-12-20 13:42:00,3.0,0.0,-100.00,South,180,7.0,12.0,85,-99.99,,,-99.99,,2013-12-20 19:42:00,
2013-12-20 13:52:00,3.0,0.0,-100.00,South,180,7.0,12.0,85,-99.99,,,-99.99,,2013-12-20 19:52:00,
2013-12-20 14:12:00,4.0,0.0,-100.00,South,180,9.0,13.0,83,-99.99,,,-99.99,,2013-12-20 20:12:00,
2013-12-20 14:22:00,4.0,0.0,-100.00,South,180,9.0,13.0,83,-99.99,,,-99.99,,2013-12-20 20:22:00,
2013-12-20 14:42:00,4.0,-1.0,-100.00,South,180,7.0,13.0,82,-99.99,,,-99.99,,2013-12-20 20:42:00,
2013-12-20 14:52:00,4.0,-1.0,-100.00,South,180,7.0,13.0,82,-99.99,,,-99.99,,2013-12-20 20:52:00,
2013-12-20 15:12:00,4.0,-1.0,-100.00,South,185,9.0,15.0,83,-99.99,,,-99.99,,2013-12-20 21:12:00,
2013-12-20 15:22:00,4.0,-1.0,-100.00,South,185,9.0,15.0,83,-99.99,,,-99.99,,2013-12-20 21:22:00,
2013-12-20 15:43:00,4.0,0.0,-100.00,South,180,7.0,14.0,83,-99.99,,,-99.99,,2013-12-20 21:43:00,
2013-12-20 15:53:00,4.0,0.0,-100.00,South,180,7.0,14.0,83,-99.99,,,-99.99,,2013-12-20 21:53:00,
2013-12-20 16:13:00,4.0,0.0,-100.00,South,185,8.0,14.0,84,-99.99,,,-99.99,,2013-12-20 22:13:00,
2013-12-20 16:23:00,4.0,0.0,-100.00,South,185,8.0,14.0,84,-99.99,,,-99.99,,2013-12-20 22:23:00,
2013-12-20 16:43:00,4.0,0.0,-100.00,South,190,9.0,12.0,85,-99.99,,,-99.99,,2013-12-20 22:43:00,
2013-12-20 16:53:00,4.0,0.0,-100.00,South,190,9.0,12.0,85,-99.99,,,-99.99,,2013-12-20 22:53:00,
2013-12-20 17:12:00,4.0,0.0,-100.00,South,180,10.0,15.0,86,-99.99,,,-99.99,,2013-12-20 23:12:00,
2013-12-20 17:22:00,4.0,0.0,-100.00,South,180,10.0,15.0,86,-99.99,,,-99.99,,2013-12-20 23:22:00,
2013-12-20 17:43:00,4.0,1.0,-100.00,South,185,9.0,12.0,87,-99.99,,,-99.99,,2013-12-20 23:43:00,
2013-12-20 17:53:00,4.0,1.0,-100.00,South,185,9.0,12.0,87,-99.99,,,-99.99,,2013-12-20 23:53:00,
2013-12-20 18:11:00,3.0,0.0,-100.00,South,185,10.0,14.0,88,-99.99,,,-99.99,,2013-12-21 00:11:00,
2013-12-20 18:22:00,3.0,0.0,-100.00,South,185,10.0,14.0,88,-99.99,,,-99.99,,2013-12-21 00:22:00,
2013-12-20 18:42:00,3.0,1.0,-100.00,South,185,9.0,12.0,89,-99.99,,,-99.99,,2013-12-21 00:42:00,
2013-12-20 18:52:00,3.0,1.0,-100.00,South,185,9.0,12.0,89,-99.99,,,-99.99,,2013-12-21 00:52:00,
2013-12-20 19:11:00,4.0,1.0,-100.00,South,185,7.0,11.0,90,-99.99,,,-99.99,,2013-12-21 01:11:00,
2013-12-20 19:22:00,4.0,1.0,-100.00,South,185,7.0,11.0,90,-99.99,,,-99.99,,2013-12-21 01:22:00,
2013-12-20 19:42:00,3.0,1.0,-100.00,South,180,9.0,12.0,90,-99.99,,,-99.99,,2013-12-21 01:42:00,
2013-12-20 19:52:00,3.0,1.0,-100.00,South,180,9.0,12.0,90,-99.99,,,-99.99,,2013-12-21 01:52:00,
2013-12-20 20:12:00,3.0,1.0,-100.00,South,175,6.0,9.0,90,-99.99,,,-99.99,,2013-12-21 02:12:00,
2013-12-20 20:21:00,3.0,1.0,-100.00,South,175,6.0,9.0,90,-99.99,,,-99.99,,2013-12-21 02:21:00,
2013-12-20 20:42:00,3.0,0.0,-100.00,South,180,6.0,11.0,90,-99.99,,,-99.99,,2013-12-21 02:42:00,
2013-12-20 20:52:00,3.0,0.0,-100.00,South,180,6.0,11.0,90,-99.99,,,-99.99,,2013-12-21 02:52:00,
2013-12-20 21:11:00,3.0,0.0,-100.00,South,190,6.0,10.0,90,-99.99,,,-99.99,,2013-12-21 03:11:00,
2013-12-20 21:22:00,3.0,0.0,-100.00,South,190,6.0,10.0,90,-99.99,,,-99.99,,2013-12-21 03:22:00,
2013-12-20 21:43:00,3.0,0.0,-100.00,South,175,6.0,8.0,90,-99.99,,,-99.99,,2013-12-21 03:43:00,
2013-12-20 21:53:00,3.0,0.0,-100.00,South,175,6.0,8.0,90,-99.99,,,-99.99,,2013-12-21 03:53:00,
2013-12-20 22:13:00,3.0,1.0,-100.00,SSW,205,3.0,9.0,91,-99.99,,,-99.99,,2013-12-21 04:13:00,
2013-12-20 22:23:00,3.0,1.0,-100.00,SSW,205,3.0,9.0,91,-99.99,,,-99.99,,2013-12-21 04:23:00,
2013-12-20 22:43:00,3.0,1.0,-100.00,SSW,200,3.0,5.0,91,-99.99,,,-99.99,,2013-12-21 04:43:00,
2013-12-20 22:52:00,3.0,1.0,-100.00,SSW,200,3.0,5.0,91,-99.99,,,-99.99,,2013-12-21 04:52:00,
2013-12-20 23:12:00,2.0,0.0,-100.00,SSW,205,4.0,6.0,92,-99.99,,,-99.99,,2013-12-21 05:12:00,
2013-12-20 23:22:00,2.0,0.0,-100.00,SSW,205,4.0,6.0,92,-99.99,,,-99.99,,2013-12-21 05:22:00,
2013-12-20 23:42:00,2.0,0.0,-100.00,South,185,6.0,7.0,92,-99.99,,,-99.99,,2013-12-21 05:42:00,
2013-12-20 23:52:00,2.0,0.0,-100.00,South,185,6.0,7.0,92,-99.99,,,-99.99,,2013-12-21 05:52:00,